sensor_id;sensor_type;location;lat;lon;timestamp;pressure;altitude;pressure_sealevel;temperature;humidity
10464;BME280;5279;42.048;24.638;2023-05-24T00:00:04;97204.50;;;15.53;80.86
10464;BME280;5279;42.048;24.638;2023-05-24T00:02:36;97216.44;;;15.57;80.86
10464;BME280;5279;42.048;24.638;2023-05-24T00:05:07;97214.22;;;15.60;79.94
10464;BME280;5279;42.048;24.638;2023-05-24T00:07:36;97209.47;;;15.56;79.53
10464;BME280;5279;42.048;24.638;2023-05-24T00:10:04;97217.38;;;15.64;79.60
10464;BME280;5279;42.048;24.638;2023-05-24T00:12:33;97201.34;;;15.64;79.59
10464;BME280;5279;42.048;24.638;2023-05-24T00:15:00;97203.00;;;15.65;79.72
10464;BME280;5279;42.048;24.638;2023-05-24T00:17:28;97197.66;;;15.65;80.91
10464;BME280;5279;42.048;24.638;2023-05-24T00:19:56;97198.13;;;15.68;78.64
10464;BME280;5279;42.048;24.638;2023-05-24T00:22:24;97201.97;;;15.66;79.54
10464;BME280;5279;42.048;24.638;2023-05-24T00:24:55;97187.06;;;15.57;78.97
10464;BME280;5279;42.048;24.638;2023-05-24T00:27:22;97209.56;;;15.62;78.40
10464;BME280;5279;42.048;24.638;2023-05-24T00:29:51;97189.72;;;15.57;79.60
10464;BME280;5279;42.048;24.638;2023-05-24T00:32:19;97195.72;;;15.59;80.00
10464;BME280;5279;42.048;24.638;2023-05-24T00:34:46;97190.84;;;15.48;81.82
10464;BME280;5279;42.048;24.638;2023-05-24T00:37:14;97199.50;;;15.50;81.54
10464;BME280;5279;42.048;24.638;2023-05-24T00:39:42;97196.28;;;15.54;83.38
10464;BME280;5279;42.048;24.638;2023-05-24T00:42:10;97191.31;;;15.51;82.64
10464;BME280;5279;42.048;24.638;2023-05-24T00:44:37;97181.09;;;15.55;80.82
10464;BME280;5279;42.048;24.638;2023-05-24T00:47:06;97206.22;;;15.60;79.71
10464;BME280;5279;42.048;24.638;2023-05-24T00:49:34;97193.50;;;15.77;80.30
10464;BME280;5279;42.048;24.638;2023-05-24T00:52:02;97192.13;;;15.66;85.32
10464;BME280;5279;42.048;24.638;2023-05-24T00:54:29;97192.31;;;15.65;86.56
10464;BME280;5279;42.048;24.638;2023-05-24T00:56:56;97194.06;;;15.58;85.75
10464;BME280;5279;42.048;24.638;2023-05-24T00:59:25;97192.84;;;15.46;86.76
10464;BME280;5279;42.048;24.638;2023-05-24T01:01:53;97189.00;;;15.33;91.36
10464;BME280;5279;42.048;24.638;2023-05-24T01:04:22;97196.31;;;15.02;100.00
10464;BME280;5279;42.048;24.638;2023-05-24T01:07:05;97197.13;;;14.88;100.00
10464;BME280;5279;42.048;24.638;2023-05-24T01:09:46;97198.78;;;14.52;100.00
10464;BME280;5279;42.048;24.638;2023-05-24T01:12:25;97180.47;;;14.49;100.00
10464;BME280;5279;42.048;24.638;2023-05-24T01:15:00;97184.22;;;14.40;100.00
10464;BME280;5279;42.048;24.638;2023-05-24T01:17:39;97178.25;;;14.30;100.00
10464;BME280;5279;42.048;24.638;2023-05-24T01:20:16;97182.19;;;14.42;100.00
10464;BME280;5279;42.048;24.638;2023-05-24T01:23:17;97190.59;;;14.53;98.19
10464;BME280;5279;42.048;24.638;2023-05-24T01:26:05;97196.88;;;14.60;96.40
10464;BME280;5279;42.048;24.638;2023-05-24T01:28:37;97174.47;;;14.69;94.25
10464;BME280;5279;42.048;24.638;2023-05-24T01:31:06;97184.16;;;14.85;93.30
10464;BME280;5279;42.048;24.638;2023-05-24T01:33:33;97175.06;;;14.94;92.33
10464;BME280;5279;42.048;24.638;2023-05-24T01:36:00;97181.34;;;15.01;89.82
10464;BME280;5279;42.048;24.638;2023-05-24T01:38:27;97177.94;;;15.07;90.60
10464;BME280;5279;42.048;24.638;2023-05-24T01:41:00;97175.06;;;15.09;87.90
10464;BME280;5279;42.048;24.638;2023-05-24T01:43:33;97179.16;;;15.19;87.22
10464;BME280;5279;42.048;24.638;2023-05-24T01:46:12;97182.09;;;15.24;87.36
10464;BME280;5279;42.048;24.638;2023-05-24T01:48:48;97179.16;;;15.19;87.40
10464;BME280;5279;42.048;24.638;2023-05-24T01:51:23;97176.38;;;15.13;87.67
10464;BME280;5279;42.048;24.638;2023-05-24T01:53:51;97178.94;;;15.21;87.30
10464;BME280;5279;42.048;24.638;2023-05-24T01:56:21;97181.03;;;15.11;88.36
10464;BME280;5279;42.048;24.638;2023-05-24T01:58:50;97177.09;;;15.21;90.04
10464;BME280;5279;42.048;24.638;2023-05-24T02:01:21;97171.56;;;15.08;97.08
10464;BME280;5279;42.048;24.638;2023-05-24T02:03:49;97163.41;;;14.95;90.63
10464;BME280;5279;42.048;24.638;2023-05-24T02:06:17;97166.50;;;14.99;94.60
10464;BME280;5279;42.048;24.638;2023-05-24T02:08:44;97173.75;;;14.90;98.60
10464;BME280;5279;42.048;24.638;2023-05-24T02:11:11;97181.03;;;14.96;93.82
10464;BME280;5279;42.048;24.638;2023-05-24T02:13:38;97180.03;;;14.97;90.58
10464;BME280;5279;42.048;24.638;2023-05-24T02:16:06;97189.16;;;15.03;89.71
10464;BME280;5279;42.048;24.638;2023-05-24T02:18:37;97189.06;;;15.11;89.14
10464;BME280;5279;42.048;24.638;2023-05-24T02:21:04;97206.00;;;15.18;88.99
10464;BME280;5279;42.048;24.638;2023-05-24T02:23:32;97195.97;;;15.20;90.89
10464;BME280;5279;42.048;24.638;2023-05-24T02:25:59;97197.47;;;15.22;88.67
10464;BME280;5279;42.048;24.638;2023-05-24T02:28:26;97196.72;;;15.28;93.32
10464;BME280;5279;42.048;24.638;2023-05-24T02:30:56;97201.13;;;15.21;95.19
10464;BME280;5279;42.048;24.638;2023-05-24T02:33:23;97196.63;;;15.07;97.64
10464;BME280;5279;42.048;24.638;2023-05-24T02:35:52;97197.28;;;14.72;100.00
10464;BME280;5279;42.048;24.638;2023-05-24T02:38:19;97197.59;;;14.54;100.00
10464;BME280;5279;42.048;24.638;2023-05-24T02:40:46;97197.13;;;14.51;100.00
10464;BME280;5279;42.048;24.638;2023-05-24T02:43:13;97205.44;;;14.56;100.00
10464;BME280;5279;42.048;24.638;2023-05-24T02:45:40;97207.31;;;14.70;96.59
10464;BME280;5279;42.048;24.638;2023-05-24T02:48:07;97208.06;;;14.78;97.44
10464;BME280;5279;42.048;24.638;2023-05-24T02:50:34;97216.16;;;14.85;95.78
10464;BME280;5279;42.048;24.638;2023-05-24T02:53:02;97219.13;;;14.90;94.27
10464;BME280;5279;42.048;24.638;2023-05-24T02:55:30;97215.72;;;14.96;94.16
10464;BME280;5279;42.048;24.638;2023-05-24T02:57:57;97216.75;;;14.95;97.21
10464;BME280;5279;42.048;24.638;2023-05-24T03:00:24;97218.75;;;14.93;100.00
10464;BME280;5279;42.048;24.638;2023-05-24T03:02:51;97214.34;;;14.63;100.00
10464;BME280;5279;42.048;24.638;2023-05-24T03:05:20;97217.97;;;14.70;98.66
10464;BME280;5279;42.048;24.638;2023-05-24T03:07:46;97213.16;;;14.65;100.00
10464;BME280;5279;42.048;24.638;2023-05-24T03:10:15;97219.28;;;14.74;100.00
10464;BME280;5279;42.048;24.638;2023-05-24T03:12:42;97212.16;;;14.66;100.00
10464;BME280;5279;42.048;24.638;2023-05-24T03:15:10;97209.97;;;14.70;100.00
10464;BME280;5279;42.048;24.638;2023-05-24T03:17:41;97213.94;;;14.74;100.00
10464;BME280;5279;42.048;24.638;2023-05-24T03:20:10;97213.94;;;14.74;100.00
10464;BME280;5279;42.048;24.638;2023-05-24T03:22:38;97217.97;;;14.70;100.00
10464;BME280;5279;42.048;24.638;2023-05-24T03:25:06;97219.34;;;14.81;100.00
10464;BME280;5279;42.048;24.638;2023-05-24T03:27:36;97208.97;;;14.71;100.00
10464;BME280;5279;42.048;24.638;2023-05-24T03:30:04;97210.72;;;14.78;100.00
10464;BME280;5279;42.048;24.638;2023-05-24T03:32:31;97212.19;;;14.81;100.00
10464;BME280;5279;42.048;24.638;2023-05-24T03:34:58;97211.66;;;14.86;100.00
10464;BME280;5279;42.048;24.638;2023-05-24T03:37:26;97210.69;;;15.01;99.31
10464;BME280;5279;42.048;24.638;2023-05-24T03:39:53;97222.28;;;15.08;96.55
10464;BME280;5279;42.048;24.638;2023-05-24T03:42:20;97213.00;;;15.19;96.80
10464;BME280;5279;42.048;24.638;2023-05-24T03:44:48;97210.34;;;15.33;96.81
10464;BME280;5279;42.048;24.638;2023-05-24T03:47:15;97202.59;;;15.39;97.67
10464;BME280;5279;42.048;24.638;2023-05-24T03:49:42;97216.81;;;15.54;96.61
10464;BME280;5279;42.048;24.638;2023-05-24T03:52:09;97210.19;;;15.64;89.84
10464;BME280;5279;42.048;24.638;2023-05-24T03:54:36;97202.88;;;15.73;91.94
10464;BME280;5279;42.048;24.638;2023-05-24T03:57:03;97213.75;;;15.86;94.69
10464;BME280;5279;42.048;24.638;2023-05-24T03:59:30;97212.34;;;15.90;93.55
10464;BME280;5279;42.048;24.638;2023-05-24T04:01:58;97211.88;;;16.01;89.71
10464;BME280;5279;42.048;24.638;2023-05-24T04:04:25;97212.75;;;16.08;89.52
10464;BME280;5279;42.048;24.638;2023-05-24T04:06:52;97207.69;;;16.13;92.40
10464;BME280;5279;42.048;24.638;2023-05-24T04:09:21;97204.75;;;16.29;89.09
10464;BME280;5279;42.048;24.638;2023-05-24T04:11:48;97207.13;;;16.39;90.99
10464;BME280;5279;42.048;24.638;2023-05-24T04:14:15;97214.94;;;16.55;85.19
10464;BME280;5279;42.048;24.638;2023-05-24T04:16:42;97219.31;;;16.63;84.80
10464;BME280;5279;42.048;24.638;2023-05-24T04:19:10;97225.44;;;16.78;83.76
10464;BME280;5279;42.048;24.638;2023-05-24T04:21:37;97233.97;;;16.88;80.16
10464;BME280;5279;42.048;24.638;2023-05-24T04:24:05;97226.84;;;16.95;84.48
10464;BME280;5279;42.048;24.638;2023-05-24T04:26:33;97238.03;;;17.05;83.96
10464;BME280;5279;42.048;24.638;2023-05-24T04:29:02;97238.13;;;17.18;79.14
10464;BME280;5279;42.048;24.638;2023-05-24T04:31:29;97240.47;;;17.28;77.82
10464;BME280;5279;42.048;24.638;2023-05-24T04:33:57;97234.75;;;17.37;77.70
10464;BME280;5279;42.048;24.638;2023-05-24T04:36:26;97243.53;;;17.53;78.78
10464;BME280;5279;42.048;24.638;2023-05-24T04:38:53;97240.97;;;17.66;79.48
10464;BME280;5279;42.048;24.638;2023-05-24T04:41:20;97236.28;;;17.81;77.60
10464;BME280;5279;42.048;24.638;2023-05-24T04:43:48;97235.91;;;17.90;76.77
10464;BME280;5279;42.048;24.638;2023-05-24T04:46:15;97240.28;;;17.98;75.91
10464;BME280;5279;42.048;24.638;2023-05-24T04:48:42;97231.44;;;18.04;74.10
10464;BME280;5279;42.048;24.638;2023-05-24T04:51:09;97243.25;;;18.16;73.03
10464;BME280;5279;42.048;24.638;2023-05-24T04:53:37;97240.78;;;18.21;73.85
10464;BME280;5279;42.048;24.638;2023-05-24T04:56:04;97238.75;;;18.23;73.03
10464;BME280;5279;42.048;24.638;2023-05-24T04:58:31;97245.19;;;18.35;75.99
10464;BME280;5279;42.048;24.638;2023-05-24T05:00:59;97244.81;;;18.51;71.13
10464;BME280;5279;42.048;24.638;2023-05-24T05:03:26;97237.03;;;18.63;71.80
10464;BME280;5279;42.048;24.638;2023-05-24T05:05:53;97244.88;;;18.78;70.79
10464;BME280;5279;42.048;24.638;2023-05-24T05:08:20;97241.56;;;18.76;68.84
10464;BME280;5279;42.048;24.638;2023-05-24T05:10:48;97236.44;;;18.87;70.57
10464;BME280;5279;42.048;24.638;2023-05-24T05:13:15;97249.41;;;18.97;68.22
10464;BME280;5279;42.048;24.638;2023-05-24T05:15:42;97245.31;;;19.14;68.33
10464;BME280;5279;42.048;24.638;2023-05-24T05:18:09;97233.31;;;19.23;69.94
10464;BME280;5279;42.048;24.638;2023-05-24T05:20:36;97237.91;;;19.42;70.08
10464;BME280;5279;42.048;24.638;2023-05-24T05:23:03;97241.19;;;19.57;67.95
10464;BME280;5279;42.048;24.638;2023-05-24T05:25:30;97234.97;;;19.63;68.15
10464;BME280;5279;42.048;24.638;2023-05-24T05:27:58;97239.25;;;19.78;70.18
10464;BME280;5279;42.048;24.638;2023-05-24T05:30:25;97240.50;;;19.82;64.98
10464;BME280;5279;42.048;24.638;2023-05-24T05:32:51;97240.25;;;19.90;68.49
10464;BME280;5279;42.048;24.638;2023-05-24T05:35:18;97236.91;;;20.01;66.36
10464;BME280;5279;42.048;24.638;2023-05-24T05:37:45;97238.94;;;20.12;66.32
10464;BME280;5279;42.048;24.638;2023-05-24T05:40:12;97234.75;;;20.29;67.68
10464;BME280;5279;42.048;24.638;2023-05-24T05:42:39;97234.63;;;20.49;66.14
10464;BME280;5279;42.048;24.638;2023-05-24T05:45:11;97241.72;;;20.75;65.63
10464;BME280;5279;42.048;24.638;2023-05-24T05:47:37;97252.94;;;21.03;64.94
10464;BME280;5279;42.048;24.638;2023-05-24T05:50:05;97249.00;;;21.30;65.02
10464;BME280;5279;42.048;24.638;2023-05-24T05:52:32;97252.94;;;21.52;66.02
10464;BME280;5279;42.048;24.638;2023-05-24T05:54:59;97255.22;;;21.73;66.72
10464;BME280;5279;42.048;24.638;2023-05-24T05:57:26;97246.53;;;21.71;72.53
10464;BME280;5279;42.048;24.638;2023-05-24T05:59:53;97251.91;;;21.71;73.56
10464;BME280;5279;42.048;24.638;2023-05-24T06:02:21;97251.41;;;21.81;74.23
10464;BME280;5279;42.048;24.638;2023-05-24T06:04:48;97259.66;;;21.86;76.19
10464;BME280;5279;42.048;24.638;2023-05-24T06:07:15;97260.41;;;21.75;73.33
10464;BME280;5279;42.048;24.638;2023-05-24T06:09:42;97259.97;;;21.53;74.86
10464;BME280;5279;42.048;24.638;2023-05-24T06:12:09;97261.66;;;21.54;75.11
10464;BME280;5279;42.048;24.638;2023-05-24T06:14:36;97265.22;;;21.48;75.38
10464;BME280;5279;42.048;24.638;2023-05-24T06:17:03;97265.38;;;21.53;74.79
10464;BME280;5279;42.048;24.638;2023-05-24T06:19:32;97267.94;;;21.48;75.89
10464;BME280;5279;42.048;24.638;2023-05-24T06:21:59;97266.53;;;21.64;75.02
10464;BME280;5279;42.048;24.638;2023-05-24T06:24:26;97270.94;;;21.76;75.46
10464;BME280;5279;42.048;24.638;2023-05-24T06:26:53;97274.25;;;21.78;72.70
10464;BME280;5279;42.048;24.638;2023-05-24T06:29:48;97271.44;;;21.92;74.11
10464;BME280;5279;42.048;24.638;2023-05-24T06:32:15;97288.19;;;22.00;71.23
10464;BME280;5279;42.048;24.638;2023-05-24T06:34:43;97281.66;;;22.08;69.55
10464;BME280;5279;42.048;24.638;2023-05-24T06:37:10;97285.09;;;22.15;71.12
10464;BME280;5279;42.048;24.638;2023-05-24T06:39:39;97279.13;;;22.31;71.27
10464;BME280;5279;42.048;24.638;2023-05-24T06:42:06;97282.41;;;22.33;68.72
10464;BME280;5279;42.048;24.638;2023-05-24T06:44:33;97276.59;;;22.48;65.65
10464;BME280;5279;42.048;24.638;2023-05-24T06:47:00;97276.19;;;22.62;63.85
10464;BME280;5279;42.048;24.638;2023-05-24T06:49:27;97271.84;;;22.79;64.83
10464;BME280;5279;42.048;24.638;2023-05-24T06:51:55;97273.75;;;22.91;63.26
10464;BME280;5279;42.048;24.638;2023-05-24T06:54:22;97270.34;;;22.95;61.46
10464;BME280;5279;42.048;24.638;2023-05-24T06:56:50;97266.78;;;23.13;62.43
10464;BME280;5279;42.048;24.638;2023-05-24T06:59:16;97270.78;;;23.22;61.92
10464;BME280;5279;42.048;24.638;2023-05-24T07:01:43;97275.47;;;23.26;60.65
10464;BME280;5279;42.048;24.638;2023-05-24T07:04:10;97280.47;;;23.41;60.06
10464;BME280;5279;42.048;24.638;2023-05-24T07:06:37;97279.88;;;23.39;62.03
10464;BME280;5279;42.048;24.638;2023-05-24T07:09:06;97271.66;;;23.46;62.78
10464;BME280;5279;42.048;24.638;2023-05-24T07:11:34;97273.66;;;23.50;62.88
10464;BME280;5279;42.048;24.638;2023-05-24T07:14:01;97284.72;;;23.60;63.92
10464;BME280;5279;42.048;24.638;2023-05-24T07:16:28;97265.44;;;23.68;61.60
10464;BME280;5279;42.048;24.638;2023-05-24T07:18:55;97273.31;;;23.70;60.76
10464;BME280;5279;42.048;24.638;2023-05-24T07:21:22;97266.03;;;23.82;61.77
10464;BME280;5279;42.048;24.638;2023-05-24T07:23:50;97268.72;;;23.82;61.62
10464;BME280;5279;42.048;24.638;2023-05-24T07:26:19;97268.72;;;23.93;61.07
10464;BME280;5279;42.048;24.638;2023-05-24T07:28:46;97271.53;;;23.99;60.95
10464;BME280;5279;42.048;24.638;2023-05-24T07:31:13;97263.75;;;24.14;60.21
10464;BME280;5279;42.048;24.638;2023-05-24T07:33:40;97268.09;;;24.26;60.40
10464;BME280;5279;42.048;24.638;2023-05-24T07:36:07;97267.47;;;24.36;58.98
10464;BME280;5279;42.048;24.638;2023-05-24T07:38:35;97266.13;;;24.50;58.47
10464;BME280;5279;42.048;24.638;2023-05-24T07:41:02;97267.44;;;24.59;60.09
10464;BME280;5279;42.048;24.638;2023-05-24T07:43:30;97268.28;;;24.76;60.11
10464;BME280;5279;42.048;24.638;2023-05-24T07:45:57;97271.50;;;25.02;56.80
10464;BME280;5279;42.048;24.638;2023-05-24T07:48:24;97270.44;;;25.02;54.38
10464;BME280;5279;42.048;24.638;2023-05-24T07:50:51;97265.09;;;25.08;55.36
10464;BME280;5279;42.048;24.638;2023-05-24T07:53:19;97270.88;;;25.28;56.22
10464;BME280;5279;42.048;24.638;2023-05-24T07:55:47;97274.34;;;25.40;54.97
10464;BME280;5279;42.048;24.638;2023-05-24T07:58:14;97262.66;;;25.39;54.73
10464;BME280;5279;42.048;24.638;2023-05-24T08:00:43;97265.31;;;25.68;54.44
10464;BME280;5279;42.048;24.638;2023-05-24T08:03:10;97266.28;;;25.78;53.97
10464;BME280;5279;42.048;24.638;2023-05-24T08:05:39;97265.06;;;26.07;55.51
10464;BME280;5279;42.048;24.638;2023-05-24T08:08:07;97268.34;;;26.09;50.56
10464;BME280;5279;42.048;24.638;2023-05-24T08:10:34;97274.56;;;26.27;52.05
10464;BME280;5279;42.048;24.638;2023-05-24T08:13:01;97274.47;;;26.38;53.09
10464;BME280;5279;42.048;24.638;2023-05-24T08:15:29;97264.84;;;26.31;51.63
10464;BME280;5279;42.048;24.638;2023-05-24T08:17:57;97263.16;;;26.25;52.58
10464;BME280;5279;42.048;24.638;2023-05-24T08:20:24;97268.31;;;26.48;52.54
10464;BME280;5279;42.048;24.638;2023-05-24T08:22:51;97270.53;;;26.51;50.86
10464;BME280;5279;42.048;24.638;2023-05-24T08:25:18;97268.31;;;26.48;53.57
10464;BME280;5279;42.048;24.638;2023-05-24T08:27:45;97262.56;;;26.66;51.68
10464;BME280;5279;42.048;24.638;2023-05-24T08:30:12;97263.66;;;26.87;51.86
10464;BME280;5279;42.048;24.638;2023-05-24T08:32:39;97258.59;;;27.00;49.71
10464;BME280;5279;42.048;24.638;2023-05-24T08:35:08;97268.56;;;27.17;47.36
10464;BME280;5279;42.048;24.638;2023-05-24T08:37:35;97263.28;;;27.37;47.63
10464;BME280;5279;42.048;24.638;2023-05-24T08:40:02;97275.94;;;27.21;48.75
10464;BME280;5279;42.048;24.638;2023-05-24T08:42:30;97276.09;;;27.09;47.43
10464;BME280;5279;42.048;24.638;2023-05-24T08:45:02;97277.78;;;27.15;52.21
10464;BME280;5279;42.048;24.638;2023-05-24T08:47:30;97271.41;;;27.32;47.44
10464;BME280;5279;42.048;24.638;2023-05-24T08:49:58;97271.38;;;27.27;46.18
10464;BME280;5279;42.048;24.638;2023-05-24T08:52:28;97283.44;;;27.36;44.36
10464;BME280;5279;42.048;24.638;2023-05-24T08:54:57;97280.34;;;27.54;44.28
10464;BME280;5279;42.048;24.638;2023-05-24T08:57:25;97281.41;;;27.48;37.90
10464;BME280;5279;42.048;24.638;2023-05-24T08:59:52;97281.53;;;27.68;40.29
10464;BME280;5279;42.048;24.638;2023-05-24T09:05:28;97281.66;;;27.83;41.19
10464;BME280;5279;42.048;24.638;2023-05-24T09:07:58;97281.53;;;27.68;41.86
10464;BME280;5279;42.048;24.638;2023-05-24T09:10:26;97276.72;;;27.75;42.57
10464;BME280;5279;42.048;24.638;2023-05-24T09:12:55;97275.78;;;28.01;41.07
10464;BME280;5279;42.048;24.638;2023-05-24T09:15:23;97287.19;;;27.98;40.06
10464;BME280;5279;42.048;24.638;2023-05-24T09:17:50;97287.94;;;27.89;37.03
10464;BME280;5279;42.048;24.638;2023-05-24T09:20:17;97282.81;;;27.92;38.46
10464;BME280;5279;42.048;24.638;2023-05-24T09:22:45;97282.28;;;27.95;39.01
10464;BME280;5279;42.048;24.638;2023-05-24T09:25:17;97281.75;;;27.98;37.42
10464;BME280;5279;42.048;24.638;2023-05-24T09:27:48;97281.69;;;27.88;37.82
10464;BME280;5279;42.048;24.638;2023-05-24T09:30:15;97281.75;;;27.98;38.08
10464;BME280;5279;42.048;24.638;2023-05-24T09:32:53;97269.31;;;28.07;39.45
10464;BME280;5279;42.048;24.638;2023-05-24T09:35:20;97272.09;;;28.17;38.76
10464;BME280;5279;42.048;24.638;2023-05-24T09:37:47;97272.63;;;28.19;40.15
10464;BME280;5279;42.048;24.638;2023-05-24T09:40:18;97275.88;;;28.11;37.64
10464;BME280;5279;42.048;24.638;2023-05-24T09:42:45;97274.94;;;28.01;38.29
10464;BME280;5279;42.048;24.638;2023-05-24T09:45:16;97275.28;;;28.04;37.71
10464;BME280;5279;42.048;24.638;2023-05-24T09:47:43;97274.75;;;28.07;39.54
10464;BME280;5279;42.048;24.638;2023-05-24T09:50:12;97280.28;;;28.17;37.16
10464;BME280;5279;42.048;24.638;2023-05-24T09:52:39;97279.78;;;28.31;38.68
10464;BME280;5279;42.048;24.638;2023-05-24T09:55:11;97275.81;;;28.58;38.02
10464;BME280;5279;42.048;24.638;2023-05-24T09:57:39;97272.88;;;28.70;36.64
10464;BME280;5279;42.048;24.638;2023-05-24T10:00:07;97267.47;;;28.85;36.26
10464;BME280;5279;42.048;24.638;2023-05-24T10:02:41;97277.03;;;28.98;38.44
10464;BME280;5279;42.048;24.638;2023-05-24T10:05:09;97268.88;;;29.03;35.94
10464;BME280;5279;42.048;24.638;2023-05-24T10:07:36;97259.06;;;29.22;34.91
10464;BME280;5279;42.048;24.638;2023-05-24T10:10:05;97256.66;;;29.31;36.35
10464;BME280;5279;42.048;24.638;2023-05-24T10:12:33;97252.84;;;29.32;36.09
10464;BME280;5279;42.048;24.638;2023-05-24T10:15:03;97267.84;;;29.49;36.34
10464;BME280;5279;42.048;24.638;2023-05-24T10:17:30;97259.13;;;29.52;34.53
10464;BME280;5279;42.048;24.638;2023-05-24T10:19:57;97267.03;;;29.69;32.84
10464;BME280;5279;42.048;24.638;2023-05-24T10:22:24;97262.94;;;29.61;33.95
10464;BME280;5279;42.048;24.638;2023-05-24T10:24:52;97249.00;;;29.63;33.37
10464;BME280;5279;42.048;24.638;2023-05-24T10:27:26;97257.50;;;29.82;31.28
10464;BME280;5279;42.048;24.638;2023-05-24T10:30:01;97255.56;;;29.92;32.53
10464;BME280;5279;42.048;24.638;2023-05-24T10:32:32;97254.13;;;30.20;32.09
10464;BME280;5279;42.048;24.638;2023-05-24T10:35:03;97253.78;;;30.47;30.52
10464;BME280;5279;42.048;24.638;2023-05-24T10:37:32;97247.09;;;30.73;29.85
10464;BME280;5279;42.048;24.638;2023-05-24T10:39:59;97247.72;;;30.60;29.66
10464;BME280;5279;42.048;24.638;2023-05-24T10:42:29;97245.31;;;30.38;29.61
10464;BME280;5279;42.048;24.638;2023-05-24T10:44:57;97239.81;;;30.53;30.54
10464;BME280;5279;42.048;24.638;2023-05-24T10:47:25;97243.41;;;30.49;28.43
10464;BME280;5279;42.048;24.638;2023-05-24T10:49:55;97240.66;;;30.44;29.02
10464;BME280;5279;42.048;24.638;2023-05-24T10:52:32;97236.84;;;30.45;28.30
10464;BME280;5279;42.048;24.638;2023-05-24T10:55:04;97228.25;;;30.61;28.71
10464;BME280;5279;42.048;24.638;2023-05-24T10:57:32;97223.03;;;30.70;28.77
10464;BME280;5279;42.048;24.638;2023-05-24T11:00:26;97216.97;;;30.78;28.95
10464;BME280;5279;42.048;24.638;2023-05-24T11:02:58;97217.41;;;30.46;31.35
10464;BME280;5279;42.048;24.638;2023-05-24T11:05:33;97216.84;;;30.54;31.65
10464;BME280;5279;42.048;24.638;2023-05-24T11:08:01;97222.03;;;30.51;31.31
10464;BME280;5279;42.048;24.638;2023-05-24T11:10:30;97217.44;;;30.41;31.65
10464;BME280;5279;42.048;24.638;2023-05-24T11:12:59;97216.56;;;30.51;30.49
10464;BME280;5279;42.048;24.638;2023-05-24T11:15:26;97217.97;;;30.43;32.25
10464;BME280;5279;42.048;24.638;2023-05-24T11:18:13;97223.72;;;30.31;30.50
10464;BME280;5279;42.048;24.638;2023-05-24T11:20:42;97221.59;;;30.13;30.06
10464;BME280;5279;42.048;24.638;2023-05-24T11:23:09;97215.56;;;30.26;33.94
10464;BME280;5279;42.048;24.638;2023-05-24T11:25:37;97219.88;;;30.38;29.25
10464;BME280;5279;42.048;24.638;2023-05-24T11:28:06;97215.75;;;30.50;28.33
10464;BME280;5279;42.048;24.638;2023-05-24T11:30:33;97215.53;;;30.37;28.64
10464;BME280;5279;42.048;24.638;2023-05-24T11:33:00;97210.56;;;30.44;29.23
10464;BME280;5279;42.048;24.638;2023-05-24T11:35:27;97205.44;;;30.27;28.42
10464;BME280;5279;42.048;24.638;2023-05-24T11:37:55;97199.16;;;30.26;28.52
10464;BME280;5279;42.048;24.638;2023-05-24T11:40:23;97196.13;;;30.28;29.16
10464;BME280;5279;42.048;24.638;2023-05-24T11:42:51;97206.50;;;30.31;28.73
10464;BME280;5279;42.048;24.638;2023-05-24T11:45:18;97206.75;;;30.45;30.14
10464;BME280;5279;42.048;24.638;2023-05-24T11:47:47;97196.81;;;30.64;28.95
10464;BME280;5279;42.048;24.638;2023-05-24T11:50:14;97190.16;;;30.75;30.30
10464;BME280;5279;42.048;24.638;2023-05-24T11:52:42;97195.03;;;30.88;31.37
10464;BME280;5279;42.048;24.638;2023-05-24T11:55:12;97189.16;;;31.05;30.62
10464;BME280;5279;42.048;24.638;2023-05-24T11:57:45;97194.41;;;31.01;29.56
10464;BME280;5279;42.048;24.638;2023-05-24T12:00:23;97183.44;;;31.01;30.82
10464;BME280;5279;42.048;24.638;2023-05-24T12:02:50;97187.81;;;31.02;30.81
10464;BME280;5279;42.048;24.638;2023-05-24T12:05:18;97177.50;;;30.94;28.40
10464;BME280;5279;42.048;24.638;2023-05-24T12:07:45;97174.66;;;31.04;31.11
10464;BME280;5279;42.048;24.638;2023-05-24T12:10:14;97175.28;;;30.96;29.61
10464;BME280;5279;42.048;24.638;2023-05-24T12:12:42;97174.88;;;31.13;30.80
10464;BME280;5279;42.048;24.638;2023-05-24T12:15:10;97161.47;;;31.11;30.46
10464;BME280;5279;42.048;24.638;2023-05-24T12:17:54;97156.66;;;30.93;32.62
10464;BME280;5279;42.048;24.638;2023-05-24T12:20:21;97158.50;;;31.08;31.91
10464;BME280;5279;42.048;24.638;2023-05-24T12:22:49;97142.44;;;30.96;32.95
10464;BME280;5279;42.048;24.638;2023-05-24T12:25:18;97149.88;;;31.24;30.94
10464;BME280;5279;42.048;24.638;2023-05-24T12:27:46;97143.81;;;31.27;31.35
10464;BME280;5279;42.048;24.638;2023-05-24T12:30:14;97139.63;;;31.35;33.00
10464;BME280;5279;42.048;24.638;2023-05-24T12:32:46;97153.50;;;31.43;30.00
10464;BME280;5279;42.048;24.638;2023-05-24T12:35:15;97139.31;;;31.13;30.56
10464;BME280;5279;42.048;24.638;2023-05-24T12:37:42;97143.41;;;30.71;30.41
10464;BME280;5279;42.048;24.638;2023-05-24T12:40:19;97142.03;;;30.74;32.00
10464;BME280;5279;42.048;24.638;2023-05-24T12:42:49;97135.09;;;30.86;31.90
10464;BME280;5279;42.048;24.638;2023-05-24T12:45:17;97138.91;;;30.91;32.39
10464;BME280;5279;42.048;24.638;2023-05-24T12:47:48;97146.91;;;30.77;30.55
10464;BME280;5279;42.048;24.638;2023-05-24T12:50:16;97146.47;;;30.65;30.97
10464;BME280;5279;42.048;24.638;2023-05-24T12:52:43;97149.91;;;30.80;31.34
10464;BME280;5279;42.048;24.638;2023-05-24T12:55:11;97144.69;;;30.84;31.62
10464;BME280;5279;42.048;24.638;2023-05-24T12:57:40;97136.16;;;30.52;30.81
10464;BME280;5279;42.048;24.638;2023-05-24T13:00:08;97144.69;;;30.40;30.41
10464;BME280;5279;42.048;24.638;2023-05-24T13:02:38;97146.16;;;30.17;31.44
10464;BME280;5279;42.048;24.638;2023-05-24T13:05:07;97142.81;;;30.30;31.38
10464;BME280;5279;42.048;24.638;2023-05-24T13:07:34;97137.63;;;30.29;30.66
10464;BME280;5279;42.048;24.638;2023-05-24T13:10:01;97149.03;;;30.46;30.69